Página principal
METAR-TAF:

METAR-TAF

Aeroportos :

Aeroporto de Bruxelas. Zaventem

Bruxelas, Bélgica

latitude: 50-54N, longitude: 004-32E, altura: 55 m

Observação actual do tempo

O boletim foi feito há 34 minutos, às 13:50 UTC
Vento 4 kt de nor-noroeste
Temperatura 22°C
Humidade 73%
Pressão 1021 hPa
Visibilidade 10 km ou mais
Nuvens dispersasa uma altura de 2300 ft

METAR: EBBR 201350Z 34004KT 9999 SCT023 22/17 Q1021 NOSIG

Hora: 16:24 (14:24 UTC)

Previsão

O boletim foi feito há 2 horas e 54 minutos, às 11:30 UTC
Previsão válida de 20 às 12 UTC a 21 às 18 UTC
Vento 5 kt de oes-noroeste
Visibilidade 10 km ou mais
Nuvens dispersasa uma altura de 2500 ft
Nuvens fragmentadasa uma altura de 4000 ft
Probabilidade 30% :
Temporariamente
de 21 às 04 UTC a 21 às 07 UTC
Visibilidade: 4000 m
neblina

TAF: EBBR 201130Z 2012/2118 30005KT 9999 SCT025 BKN040 PROB30 TEMPO 2104/2107 4000 BR

Observações e previsões do tempo de mais de 4000 aeroportos (mensagens METAR e TAF).

As estações disponíveis são os pontos amarelos e vermelhos sobre o mapa.

Mova o rato sobre o mapa para ver o nome da estação.

Depois clique no ponto para visualizar as observações e previsões meteorológicas.

Para alterar o mapa : clique nos botões verdes com uma cruz preta para aumentar o zoom; no botão verde com uma pitada de zoom; ou nas setas verdes para mapas adjacentes.


METAR-TAF: